メインページ
METAR-TAF:

METAR-TAF

空港 :

インディアナポリス, インディアナ州, アメリカ合衆国

インディアナポリス国際空港

緯度: 39-43-30N, 経度: 086-16-55W, 海抜: 243m

現時点の気象観測

当レポートは45分前の09:54(UTC)に作成
西の風 11kt
気温 3°C
湿度 75%
気圧 1013 hPa
視程: 16.1km
高度2100ftの雲は散在している
高度2800ftの曇り

METAR: KIND 190954Z 28011KT 10SM SCT021 OVC028 03/M01 A2992 RMK AO2 SLP136 T00281011

時間: 05:39 (10:39 UTC)

予報

当レポートは2時間34分前の08:05(UTC)に作成
予報は19日の 08時(UTC)から 20日の 12時(UTC)まで有効
北西の風 13kt、最大19ktの突風を伴う
視程: 10km
高度2800ftの曇り
19日の 1000時(UTC)から
西/北西の風 11kt
視程: 10km
高度1500ftの雲は散在している
高度2500ftの曇り
19日の 1700時(UTC)から
西/北西の風 11kt、最大20ktの突風を伴う
視程: 10km
高度4000ftの雲は散在している
19日の 2100時(UTC)から
西の風 10kt
視程: 10km
高度25000ftの雲はほとんどない

TAF: KIND 190805Z 1908/2012 31013G19KT P6SM OVC028 FM191000 30011KT P6SM SCT015 OVC025 FM191700 29011G20KT P6SM SCT040 FM192100 28010KT P6SM FEW250

4,000以上の空港の気象観測と天気予報(METAR報とTAF報)

利用可能な観測所は地図上に黄色い丸と赤い丸で示す。

丸の上にカーソルを重ねると観測所名を参照できる。

次にクリックすると気象観測と天気予報を参照できる。

マップの切り替え:黒色「×」印の緑ボタンをクリックして拡大、「-」印の緑ボタンをクリックして縮小、緑色の三角印をクリックして隣りの地図に切り替え


METAR-TAF: